createdAt,value
2018-08-19T00:01:14.458Z,92460.93
2018-08-19T00:03:50.382Z,92467.08
2018-08-19T00:06:26.237Z,92466.92
2018-08-19T00:09:07.075Z,92461.90
2018-08-19T00:11:44.058Z,92455.56
2018-08-19T00:14:29.750Z,92465.43
2018-08-19T00:17:06.266Z,92460.61
2018-08-19T00:19:42.438Z,92472.60
2018-08-19T00:22:18.341Z,92470.72
2018-08-19T00:24:54.288Z,92464.58
2018-08-19T00:27:30.049Z,92463.98
2018-08-19T00:30:10.400Z,92464.62
2018-08-19T00:32:46.254Z,92464.94
2018-08-19T00:35:22.575Z,92466.60
2018-08-19T00:37:58.834Z,92470.91
2018-08-19T00:40:34.797Z,92466.86
2018-08-19T00:43:10.576Z,92467.98
2018-08-19T00:45:46.768Z,92469.05
2018-08-19T00:48:22.537Z,92468.79
2018-08-19T00:50:58.503Z,92476.80
2018-08-19T00:53:34.408Z,92471.85
2018-08-19T00:56:10.223Z,92469.50
2018-08-19T00:58:46.018Z,92471.38
2018-08-19T01:01:33.169Z,92467.70
2018-08-19T01:04:10.391Z,92467.21
2018-08-19T01:06:52.071Z,92467.38
2018-08-19T01:09:30.729Z,92461.08
2018-08-19T01:12:06.793Z,92464.31
2018-08-19T01:14:42.757Z,92467.25
2018-08-19T01:17:19.579Z,92463.29
2018-08-19T01:19:59.327Z,92468.41
2018-08-19T01:22:36.735Z,92466.19
2018-08-19T01:25:14.485Z,92465.19
2018-08-19T01:27:50.763Z,92470.80
2018-08-19T01:30:27.279Z,92464.06
2018-08-19T01:33:03.359Z,92472.95
2018-08-19T01:35:40.937Z,92475.94
2018-08-19T01:38:16.705Z,92476.76
2018-08-19T01:40:52.412Z,92476.77
2018-08-19T01:43:28.164Z,92481.16
2018-08-19T01:46:03.936Z,92478.77
2018-08-19T01:48:39.656Z,92476.64
2018-08-19T01:51:15.361Z,92478.77
2018-08-19T01:53:51.142Z,92469.19
2018-08-19T01:56:26.777Z,92477.48
2018-08-19T01:59:02.598Z,92479.88
2018-08-19T02:01:52.048Z,92476.95
2018-08-19T02:04:28.080Z,92476.11
2018-08-19T02:07:04.064Z,92474.98
2018-08-19T02:09:53.537Z,92473.89
2018-08-19T02:12:38.438Z,92476.28
2018-08-19T02:15:14.328Z,92474.91
2018-08-19T02:18:11.827Z,92473.89
2018-08-19T02:20:47.826Z,92474.91
2018-08-19T02:23:23.869Z,92476.84
2018-08-19T02:25:59.730Z,92475.45
2018-08-19T02:28:35.680Z,92473.83
2018-08-19T02:31:11.553Z,92474.42
2018-08-19T02:33:47.165Z,92469.52
2018-08-19T02:36:23.124Z,92474.16
2018-08-19T02:38:59.016Z,92471.72
2018-08-19T02:41:34.961Z,92477.39
2018-08-19T02:44:10.697Z,92473.41
2018-08-19T02:46:46.881Z,92469.55
2018-08-19T02:49:22.719Z,92470.87
2018-08-19T02:51:58.759Z,92467.69
2018-08-19T02:54:34.690Z,92467.73
2018-08-19T02:57:10.563Z,92476.34
2018-08-19T02:59:46.517Z,92470.33
2018-08-19T03:02:39.764Z,92480.38
2018-08-19T03:05:16.009Z,92480.44
2018-08-19T03:07:54.379Z,92479.42
2018-08-19T03:10:30.814Z,92478.06
2018-08-19T03:13:07.043Z,92482.34
2018-08-19T03:15:42.912Z,92492.09
2018-08-19T03:18:18.781Z,92492.33
2018-08-19T03:20:54.637Z,92492.44
2018-08-19T03:23:30.479Z,92496.01
2018-08-19T03:26:06.656Z,92500.47
2018-08-19T03:28:42.442Z,92501.61
2018-08-19T03:31:18.190Z,92502.03
2018-08-19T03:33:54.173Z,92506.44
2018-08-19T03:36:29.951Z,92498.00
2018-08-19T03:39:15.561Z,92501.98
2018-08-19T03:41:51.167Z,92502.75
2018-08-19T03:44:27.061Z,92503.25
2018-08-19T03:47:05.774Z,92502.39
2018-08-19T03:49:53.692Z,92499.47
2018-08-19T03:52:29.589Z,92505.45
2018-08-19T03:55:07.718Z,92503.95
2018-08-19T03:57:43.675Z,92503.39
2018-08-19T04:00:20.220Z,92505.39
2018-08-19T04:02:56.029Z,92510.16
2018-08-19T04:05:46.471Z,92523.55
2018-08-19T04:08:23.158Z,92522.77
2018-08-19T04:10:59.037Z,92520.39
2018-08-19T04:13:38.175Z,92516.73
2018-08-19T04:16:13.944Z,92517.95
2018-08-19T04:18:49.744Z,92516.39
2018-08-19T04:21:25.822Z,92515.49
2018-08-19T04:24:01.462Z,92519.55
2018-08-19T04:26:37.197Z,92514.70
2018-08-19T04:29:17.052Z,92520.25
2018-08-19T04:31:52.992Z,92526.44
2018-08-19T04:34:28.879Z,92520.50
2018-08-19T04:37:04.868Z,92526.66
2018-08-19T04:39:40.507Z,92530.41
2018-08-19T04:42:16.507Z,92535.87
2018-08-19T04:44:52.917Z,92530.82
2018-08-19T04:47:31.459Z,92536.30
2018-08-19T04:50:07.309Z,92529.95
2018-08-19T04:52:43.233Z,92530.98
2018-08-19T04:55:19.108Z,92527.83
2018-08-19T04:57:54.852Z,92525.45
2018-08-19T05:00:31.813Z,92528.09
2018-08-19T05:03:08.177Z,92526.73
2018-08-19T05:05:43.908Z,92525.72
2018-08-19T05:08:19.820Z,92525.27
2018-08-19T05:10:55.693Z,92525.79
2018-08-19T05:13:32.155Z,92527.30
2018-08-19T05:16:08.015Z,92532.31
2018-08-19T05:18:53.057Z,92537.25
2018-08-19T05:21:28.932Z,92541.75
2018-08-19T05:24:04.790Z,92536.39
2018-08-19T05:26:40.578Z,92540.27
2018-08-19T05:29:16.639Z,92535.95
2018-08-19T05:31:56.333Z,92537.17
2018-08-19T05:34:33.219Z,92532.41
2018-08-19T05:37:08.852Z,92535.81
2018-08-19T05:39:49.899Z,92540.00
2018-08-19T05:42:25.752Z,92534.61
2018-08-19T05:45:01.502Z,92539.70
2018-08-19T05:47:37.451Z,92533.61
2018-08-19T05:50:13.262Z,92532.30
2018-08-19T05:52:49.208Z,92530.31
2018-08-19T05:55:25.223Z,92528.88
2018-08-19T05:58:01.233Z,92530.47
2018-08-19T06:00:40.463Z,92531.59
2018-08-19T06:03:16.099Z,92528.61
2018-08-19T06:05:51.984Z,92525.85
2018-08-19T06:08:27.842Z,92530.19
2018-08-19T06:11:03.945Z,92530.77
2018-08-19T06:13:39.752Z,92528.05
2018-08-19T06:16:15.707Z,92523.84
2018-08-19T06:18:54.031Z,92518.83
2018-08-19T06:21:29.790Z,92520.23
2018-08-19T06:24:05.549Z,92516.81
2018-08-19T06:26:41.603Z,92510.61
2018-08-19T06:29:17.336Z,92513.71
2018-08-19T06:31:53.118Z,92511.19
2018-08-19T06:34:29.012Z,92512.27
2018-08-19T06:37:04.956Z,92510.36
2018-08-19T06:39:40.844Z,92506.00
2018-08-19T06:42:16.862Z,92505.41
2018-08-19T06:44:52.745Z,92510.75
2018-08-19T06:47:28.580Z,92515.64
2018-08-19T06:50:12.205Z,92513.55
2018-08-19T06:52:46.746Z,92507.83
2018-08-19T06:55:18.245Z,92506.99
2018-08-19T06:57:49.629Z,92509.86
2018-08-19T07:00:28.557Z,92502.16
2018-08-19T07:03:02.910Z,92506.34
2018-08-19T07:05:34.989Z,92508.30
2018-08-19T07:08:05.891Z,92505.69
2018-08-19T07:10:38.264Z,92513.06
2018-08-19T07:13:21.346Z,92511.20
2018-08-19T07:15:52.138Z,92515.63
2018-08-19T07:18:23.758Z,92508.75
2018-08-19T07:20:54.552Z,92510.94
2018-08-19T07:23:25.364Z,92510.28
2018-08-19T07:25:56.182Z,92503.80
2018-08-19T07:28:27.046Z,92510.78
2018-08-19T07:30:57.848Z,92507.16
2018-08-19T07:33:28.643Z,92506.41
2018-08-19T07:35:59.485Z,92509.98
2018-08-19T07:38:30.292Z,92507.44
2018-08-19T07:41:01.772Z,92511.03
2018-08-19T07:43:32.631Z,92503.43
2018-08-19T07:46:03.403Z,92500.89
2018-08-19T07:48:34.216Z,92498.06
2018-08-19T07:51:05.069Z,92502.20
2018-08-19T07:53:35.872Z,92496.98
2018-08-19T07:56:07.052Z,92496.56
2018-08-19T07:58:41.872Z,92496.02
2018-08-19T08:01:12.622Z,92493.74
2018-08-19T08:03:43.443Z,92488.85
2018-08-19T08:06:14.612Z,92490.95
2018-08-19T08:08:45.475Z,92485.10
2018-08-19T08:11:16.266Z,92483.00
2018-08-19T08:13:47.439Z,92483.02
2018-08-19T08:16:18.423Z,92484.62
2018-08-19T08:18:49.229Z,92473.28
2018-08-19T08:21:20.075Z,92471.09
2018-08-19T08:23:51.088Z,92460.31
2018-08-19T08:26:21.980Z,92469.69
2018-08-19T08:28:57.983Z,92468.24
2018-08-19T08:31:28.862Z,92462.13
2018-08-19T08:33:59.653Z,92461.02
2018-08-19T08:36:30.432Z,92454.97
2018-08-19T08:39:01.421Z,92462.70
2018-08-19T08:41:32.297Z,92457.17
2018-08-19T08:44:03.589Z,92456.80
2018-08-19T08:46:34.509Z,92459.10
2018-08-19T08:49:05.714Z,92456.50
2018-08-19T08:51:36.523Z,92449.84
2018-08-19T08:54:07.426Z,92446.61
2018-08-19T08:56:41.138Z,92445.07
2018-08-19T08:59:12.175Z,92440.47
2018-08-19T09:01:42.961Z,92443.09
2018-08-19T09:04:13.753Z,92441.28
2018-08-19T09:06:44.544Z,92441.73
2018-08-19T09:09:15.452Z,92448.49
2018-08-19T09:11:46.680Z,92441.64
2018-08-19T09:14:17.823Z,92438.88
2018-08-19T09:16:48.629Z,92433.31
2018-08-19T09:19:19.457Z,92428.45
2018-08-19T09:21:53.603Z,92427.49
2018-08-19T09:24:24.486Z,92424.53
2018-08-19T09:26:55.377Z,92434.56
2018-08-19T09:29:27.993Z,92416.16
2018-08-19T09:31:58.831Z,92412.97
2018-08-19T09:34:30.264Z,92411.42
2018-08-19T09:37:01.757Z,92413.70
2018-08-19T09:39:32.687Z,92418.45
2018-08-19T09:42:08.320Z,92409.00
2018-08-19T09:44:39.506Z,92412.46
2018-08-19T09:47:10.465Z,92409.41
2018-08-19T09:49:53.339Z,92414.30
2018-08-19T09:52:24.092Z,92412.30
2018-08-19T09:54:59.886Z,92404.98
2018-08-19T09:57:30.782Z,92405.62
2018-08-19T10:00:02.145Z,92396.66
2018-08-19T10:02:37.697Z,92394.23
2018-08-19T10:05:12.916Z,92402.28
2018-08-19T10:07:43.709Z,92394.58
2018-08-19T10:10:14.740Z,92386.57
2018-08-19T10:12:45.865Z,92384.03
2018-08-19T10:15:18.060Z,92386.58
2018-08-19T10:17:48.956Z,92383.89
2018-08-19T10:20:20.059Z,92387.97
2018-08-19T10:22:53.467Z,92376.42
2018-08-19T10:25:24.444Z,92386.42
2018-08-19T10:27:56.581Z,92383.28
2018-08-19T10:30:27.436Z,92385.03
2018-08-19T10:33:04.631Z,92377.44
2018-08-19T10:35:36.198Z,92381.90
2018-08-19T10:38:06.990Z,92382.48
2018-08-19T10:40:37.970Z,92379.08
2018-08-19T10:43:10.453Z,92378.52
2018-08-19T10:45:42.527Z,92376.16
2018-08-19T10:48:14.582Z,92372.00
2018-08-19T10:50:45.548Z,92373.34
2018-08-19T10:53:21.774Z,92370.81
2018-08-19T10:55:52.996Z,92368.88
2018-08-19T10:58:24.220Z,92366.84
2018-08-19T11:00:55.374Z,92357.83
2018-08-19T11:03:27.042Z,92353.00
2018-08-19T11:05:57.911Z,92358.41
2018-08-19T11:08:28.763Z,92354.44
2018-08-19T11:11:00.317Z,92352.47
2018-08-19T11:13:32.328Z,92352.48
2018-08-19T11:16:13.252Z,92354.58
2018-08-19T11:18:45.340Z,92353.11
2018-08-19T11:21:25.489Z,92352.89
2018-08-19T11:23:57.327Z,92349.88
2018-08-19T11:26:29.010Z,92344.53
2018-08-19T11:29:00.784Z,92347.25
2018-08-19T11:31:33.333Z,92351.70
2018-08-19T11:34:07.617Z,92341.42
2018-08-19T11:36:43.555Z,92343.63
2018-08-19T11:39:15.898Z,92338.87
2018-08-19T11:41:46.718Z,92340.45
2018-08-19T11:44:18.211Z,92335.78
2018-08-19T11:46:49.298Z,92335.81
2018-08-19T11:49:20.759Z,92332.40
2018-08-19T11:51:53.919Z,92334.45
2018-08-19T11:54:26.643Z,92335.02
2018-08-19T11:57:04.773Z,92330.86
2018-08-19T11:59:44.692Z,92331.34
2018-08-19T12:02:18.877Z,92326.45
2018-08-19T12:04:49.815Z,92332.63
2018-08-19T12:07:23.779Z,92345.66
2018-08-19T12:10:01.384Z,92345.05
2018-08-19T12:12:46.796Z,92342.69
2018-08-19T12:15:17.834Z,92345.64
2018-08-19T12:17:48.743Z,92337.84
2018-08-19T12:20:28.392Z,92340.22
2018-08-19T12:22:59.298Z,92345.64
2018-08-19T12:25:30.305Z,92341.08
2018-08-19T12:28:01.125Z,92348.97
2018-08-19T12:30:32.755Z,92345.94
2018-08-19T12:33:14.382Z,92339.95
2018-08-19T12:35:45.161Z,92334.63
2018-08-19T12:38:16.016Z,92337.25
2018-08-19T12:40:48.717Z,92335.99
2018-08-19T12:43:19.646Z,92328.17
2018-08-19T12:45:50.585Z,92320.22
2018-08-19T12:48:21.416Z,92313.62
2018-08-19T12:50:59.212Z,92312.78
2018-08-19T12:53:30.241Z,92306.39
2018-08-19T12:56:03.639Z,92302.58
2018-08-19T12:58:34.461Z,92298.05
2018-08-19T13:01:05.249Z,92291.39
2018-08-19T13:03:36.069Z,92287.39
2018-08-19T13:06:08.057Z,92291.59
2018-08-19T13:08:38.899Z,92293.25
2018-08-19T13:11:10.094Z,92287.75
2018-08-19T13:13:40.956Z,92291.84
2018-08-19T13:16:11.751Z,92288.83
2018-08-19T13:18:42.916Z,92287.52
2018-08-19T13:21:16.618Z,92288.22
2018-08-19T13:23:47.512Z,92292.06
2018-08-19T13:26:18.342Z,92279.89
2018-08-19T13:28:54.817Z,92275.41
2018-08-19T13:31:29.688Z,92273.86
2018-08-19T13:34:00.518Z,92273.46
2018-08-19T13:36:31.623Z,92271.56
2018-08-19T13:39:02.716Z,92270.80
2018-08-19T13:41:33.602Z,92268.12
2018-08-19T13:44:04.557Z,92267.42
2018-08-19T13:46:35.477Z,92260.52
2018-08-19T13:49:06.445Z,92260.44
2018-08-19T13:51:37.237Z,92250.88
2018-08-19T13:54:08.227Z,92245.64
2018-08-19T13:56:39.315Z,92241.63
2018-08-19T13:59:10.144Z,92243.78
2018-08-19T14:01:40.946Z,92242.06
2018-08-19T14:04:11.860Z,92236.78
2018-08-19T14:06:44.277Z,92233.69
2018-08-19T14:09:15.533Z,92235.59
2018-08-19T14:11:46.708Z,92228.27
2018-08-19T14:14:17.515Z,92221.83
2018-08-19T14:16:48.287Z,92221.69
2018-08-19T14:19:19.113Z,92217.52
2018-08-19T14:21:49.881Z,92215.81
2018-08-19T14:24:20.703Z,92213.51
2018-08-19T14:26:51.470Z,92206.51
2018-08-19T14:29:22.462Z,92209.49
2018-08-19T14:31:53.258Z,92206.00
2018-08-19T14:34:24.126Z,92213.34
2018-08-19T14:36:54.965Z,92211.48
2018-08-19T14:39:26.023Z,92204.94
2018-08-19T14:41:56.794Z,92207.02
2018-08-19T14:44:27.617Z,92215.30
2018-08-19T14:46:58.386Z,92221.42
2018-08-19T14:49:29.210Z,92219.92
2018-08-19T14:52:02.332Z,92215.30
2018-08-19T14:54:33.288Z,92220.14
2018-08-19T14:57:04.173Z,92217.06
2018-08-19T14:59:35.000Z,92216.81
2018-08-19T15:02:05.829Z,92214.53
2018-08-19T15:04:36.816Z,92212.59
2018-08-19T15:07:07.642Z,92214.11
2018-08-19T15:09:38.545Z,92207.70
2018-08-19T15:12:15.851Z,92212.50
2018-08-19T15:14:46.717Z,92211.06
2018-08-19T15:17:17.534Z,92218.53
2018-08-19T15:19:50.400Z,92217.88
2018-08-19T15:22:21.783Z,92217.22
2018-08-19T15:24:52.988Z,92225.27
2018-08-19T15:27:30.762Z,92221.08
2018-08-19T15:30:02.283Z,92222.41
2018-08-19T15:32:33.435Z,92223.03
2018-08-19T15:35:04.619Z,92224.30
2018-08-19T15:37:35.447Z,92220.27
2018-08-19T15:40:06.540Z,92216.91
2018-08-19T15:42:37.735Z,92221.63
2018-08-19T15:45:09.230Z,92218.80
2018-08-19T15:47:41.017Z,92220.24
2018-08-19T15:50:17.992Z,92221.61
2018-08-19T15:52:49.691Z,92219.66
2018-08-19T15:55:20.799Z,92214.72
2018-08-19T15:57:52.406Z,92220.08
2018-08-19T16:00:23.338Z,92217.34
2018-08-19T16:02:55.442Z,92217.43
2018-08-19T16:05:26.838Z,92220.10
2018-08-19T16:07:57.690Z,92217.45
2018-08-19T16:10:28.555Z,92213.67
2018-08-19T16:12:59.475Z,92220.89
2018-08-19T16:15:30.335Z,92222.24
2018-08-19T16:18:01.324Z,92226.45
2018-08-19T16:20:32.161Z,92225.73
2018-08-19T16:23:02.997Z,92231.19
2018-08-19T16:25:33.933Z,92224.78
2018-08-19T16:28:04.809Z,92232.73
2018-08-19T16:30:35.817Z,92227.93
2018-08-19T16:33:06.614Z,92224.05
2018-08-19T16:35:37.455Z,92240.78
2018-08-19T16:38:08.251Z,92233.87
2018-08-19T16:40:39.223Z,92240.09
2018-08-19T16:43:10.049Z,92242.97
2018-08-19T16:45:41.055Z,92246.89
2018-08-19T16:48:12.310Z,92244.02
2018-08-19T16:50:43.285Z,92239.70
2018-08-19T16:53:14.228Z,92243.67
2018-08-19T16:55:45.561Z,92243.54
2018-08-19T16:58:16.362Z,92248.81
2018-08-19T17:00:47.206Z,92248.77
2018-08-19T17:03:31.583Z,92243.84
2018-08-19T17:06:03.730Z,92253.92
2018-08-19T17:08:34.547Z,92259.27
2018-08-19T17:11:06.184Z,92258.02
2018-08-19T17:13:37.011Z,92264.34
2018-08-19T17:16:11.250Z,92264.58
2018-08-19T17:18:42.088Z,92263.78
2018-08-19T17:21:12.969Z,92259.00
2018-08-19T17:23:43.974Z,92266.41
2018-08-19T17:26:20.084Z,92276.67
2018-08-19T17:28:51.286Z,92280.33
2018-08-19T17:31:22.335Z,92276.23
2018-08-19T17:33:53.223Z,92284.00
2018-08-19T17:36:33.324Z,92290.47
2018-08-19T17:39:05.221Z,92286.52
2018-08-19T17:41:38.660Z,92293.63
2018-08-19T17:44:09.451Z,92293.69
2018-08-19T17:46:40.317Z,92287.16
2018-08-19T17:49:19.094Z,92299.23
2018-08-19T17:51:50.030Z,92294.55
2018-08-19T17:54:25.849Z,92300.23
2018-08-19T17:56:58.425Z,92303.55
2018-08-19T17:59:29.417Z,92303.25
2018-08-19T18:02:00.335Z,92318.65
2018-08-19T18:04:38.482Z,92317.55
2018-08-19T18:07:11.774Z,92314.88
2018-08-19T18:09:47.634Z,92309.38
2018-08-19T18:12:18.872Z,92319.39
2018-08-19T18:14:49.770Z,92322.41
2018-08-19T18:17:21.326Z,92322.83
2018-08-19T18:19:52.233Z,92321.42
2018-08-19T18:22:23.564Z,92327.73
2018-08-19T18:25:01.400Z,92332.58
2018-08-19T18:27:32.397Z,92331.70
2018-08-19T18:30:03.290Z,92339.16
2018-08-19T18:32:34.150Z,92328.75
2018-08-19T18:35:05.252Z,92337.52
2018-08-19T18:37:36.258Z,92338.10
2018-08-19T18:40:07.267Z,92337.31
2018-08-19T18:42:40.976Z,92345.29
2018-08-19T18:45:13.189Z,92346.73
2018-08-19T18:47:53.120Z,92340.63
2018-08-19T18:50:25.473Z,92343.24
2018-08-19T18:52:56.697Z,92356.13
2018-08-19T18:55:27.505Z,92351.66
2018-08-19T18:57:58.444Z,92350.11
2018-08-19T19:00:30.196Z,92348.41
2018-08-19T19:03:01.884Z,92345.09
2018-08-19T19:05:37.455Z,92342.16
2018-08-19T19:08:11.006Z,92347.27
2018-08-19T19:10:50.565Z,92345.73
2018-08-19T19:13:22.320Z,92354.30
2018-08-19T19:15:53.182Z,92348.69
2018-08-19T19:18:24.109Z,92335.05
2018-08-19T19:21:00.531Z,92341.59
2018-08-19T19:23:32.748Z,92346.06
2018-08-19T19:26:05.282Z,92359.30
2018-08-19T19:28:36.289Z,92351.77
2018-08-19T19:31:12.377Z,92356.70
2018-08-19T19:33:43.411Z,92354.86
2018-08-19T19:36:18.545Z,92351.61
2018-08-19T19:38:55.534Z,92350.75
2018-08-19T19:41:28.568Z,92355.91
2018-08-19T19:44:00.233Z,92355.03
2018-08-19T19:46:31.332Z,92358.73
2018-08-19T19:49:02.274Z,92366.84
2018-08-19T19:51:33.052Z,92370.89
2018-08-19T19:54:03.957Z,92372.05
2018-08-19T19:56:35.005Z,92373.30
2018-08-19T19:59:10.656Z,92371.81
2018-08-19T20:01:46.440Z,92374.17
2018-08-19T20:04:22.953Z,92388.13
2018-08-19T20:06:58.870Z,92384.05
2018-08-19T20:09:35.939Z,92391.75
2018-08-19T20:12:16.988Z,92386.30
2018-08-19T20:14:52.836Z,92392.76
2018-08-19T20:17:28.603Z,92388.86
2018-08-19T20:20:04.911Z,92385.61
2018-08-19T20:22:40.736Z,92387.23
2018-08-19T20:25:16.756Z,92395.33
2018-08-19T20:27:56.595Z,92390.30
2018-08-19T20:30:32.922Z,92402.05
2018-08-19T20:33:17.245Z,92397.66
2018-08-19T20:35:53.420Z,92393.91
2018-08-19T20:38:29.482Z,92392.16
2018-08-19T20:41:05.711Z,92388.16
2018-08-19T20:43:41.628Z,92399.70
2018-08-19T20:46:17.581Z,92396.54
2018-08-19T20:48:53.350Z,92395.09
2018-08-19T20:51:29.289Z,92398.99
2018-08-19T20:54:05.108Z,92406.56
2018-08-19T20:56:41.035Z,92404.44
2018-08-19T20:59:22.630Z,92405.41
2018-08-19T21:01:59.075Z,92403.06
2018-08-19T21:04:34.960Z,92406.61
2018-08-19T21:07:10.880Z,92405.80
2018-08-19T21:09:46.818Z,92409.33
2018-08-19T21:12:24.220Z,92409.59
2018-08-19T21:15:04.477Z,92411.50
2018-08-19T21:17:40.262Z,92399.38
2018-08-19T21:20:16.181Z,92402.05
2018-08-19T21:22:53.457Z,92399.59
2018-08-19T21:25:29.214Z,92405.36
2018-08-19T21:28:05.160Z,92402.47
2018-08-19T21:30:41.136Z,92397.38
2018-08-19T21:33:16.796Z,92403.58
2018-08-19T21:35:55.869Z,92401.02
2018-08-19T21:38:31.623Z,92399.53
2018-08-19T21:41:07.383Z,92400.02
2018-08-19T21:43:43.169Z,92399.99
2018-08-19T21:46:19.029Z,92398.90
2018-08-19T21:48:54.808Z,92393.72
2018-08-19T21:51:30.548Z,92402.20
2018-08-19T21:54:07.122Z,92404.42
2018-08-19T21:56:43.031Z,92401.28
2018-08-19T21:59:27.053Z,92395.83
2018-08-19T22:02:02.830Z,92393.60
2018-08-19T22:04:38.622Z,92395.30
2018-08-19T22:07:14.555Z,92391.64
2018-08-19T22:09:50.588Z,92387.61
2018-08-19T22:12:26.460Z,92383.71
2018-08-19T22:15:02.065Z,92378.97
2018-08-19T22:17:37.812Z,92373.66
2018-08-19T22:20:13.526Z,92373.06
2018-08-19T22:22:50.349Z,92369.20
2018-08-19T22:25:26.100Z,92367.49
2018-08-19T22:28:02.088Z,92375.97
2018-08-19T22:30:38.040Z,92371.33
2018-08-19T22:33:13.963Z,92373.23
2018-08-19T22:35:49.714Z,92366.81
2018-08-19T22:38:31.571Z,92365.78
2018-08-19T22:41:07.426Z,92364.48
2018-08-19T22:43:43.177Z,92366.92
2018-08-19T22:46:19.074Z,92361.96
2018-08-19T22:48:55.964Z,92363.57
2018-08-19T22:51:33.401Z,92364.66
2018-08-19T22:54:09.270Z,92364.74
2018-08-19T22:56:45.190Z,92367.98
2018-08-19T22:59:20.912Z,92367.47
2018-08-19T23:01:56.992Z,92369.98
2018-08-19T23:04:32.845Z,92363.08
2018-08-19T23:07:08.637Z,92358.09
2018-08-19T23:09:44.457Z,92359.55
2018-08-19T23:12:20.435Z,92357.55
2018-08-19T23:15:06.862Z,92364.06
2018-08-19T23:17:42.730Z,92352.68
2018-08-19T23:20:18.482Z,92344.72
2018-08-19T23:22:54.260Z,92349.73
2018-08-19T23:25:30.026Z,92343.53
2018-08-19T23:28:06.130Z,92348.42
2018-08-19T23:30:41.730Z,92350.56
2018-08-19T23:33:20.873Z,92349.20
2018-08-19T23:35:56.722Z,92344.80
2018-08-19T23:38:32.644Z,92350.39
2018-08-19T23:41:08.396Z,92344.84
2018-08-19T23:43:44.161Z,92342.78
2018-08-19T23:46:20.061Z,92341.19
2018-08-19T23:48:55.828Z,92345.38
2018-08-19T23:51:32.161Z,92342.81
2018-08-19T23:54:08.517Z,92341.05
2018-08-19T23:56:44.436Z,92342.61
2018-08-19T23:59:25.167Z,92340.50
